createdAt,value
2022-12-17T00:00:27.699Z,4.53
2022-12-17T00:03:17.824Z,4.52
2022-12-17T00:06:03.382Z,4.51
2022-12-17T00:08:49.018Z,4.54
2022-12-17T00:11:34.239Z,4.57
2022-12-17T00:14:19.017Z,4.59
2022-12-17T00:17:03.986Z,4.59
2022-12-17T00:19:48.927Z,4.58
2022-12-17T00:22:34.110Z,4.58
2022-12-17T00:25:19.112Z,4.59
2022-12-17T00:28:04.266Z,4.58
2022-12-17T00:30:49.446Z,4.58
2022-12-17T00:33:35.486Z,4.56
2022-12-17T00:36:20.888Z,4.53
2022-12-17T00:39:05.835Z,4.52
2022-12-17T00:41:51.088Z,4.49
2022-12-17T00:44:36.217Z,4.47
2022-12-17T00:47:21.035Z,4.46
2022-12-17T00:50:07.145Z,4.47
2022-12-17T00:52:52.383Z,4.46
2022-12-17T00:55:37.441Z,4.49
2022-12-17T00:58:22.231Z,4.50
2022-12-17T01:01:07.182Z,4.55
2022-12-17T01:03:52.316Z,4.59
2022-12-17T01:06:37.418Z,4.62
2022-12-17T01:09:22.533Z,4.63
2022-12-17T01:12:07.232Z,4.59
2022-12-17T01:14:52.442Z,4.57
2022-12-17T01:17:37.586Z,4.57
2022-12-17T01:20:23.051Z,4.58
2022-12-17T01:23:08.035Z,4.62
2022-12-17T01:25:52.979Z,4.63
2022-12-17T01:28:43.366Z,4.60
2022-12-17T01:31:34.629Z,4.60
2022-12-17T01:34:20.153Z,4.60
2022-12-17T01:37:05.988Z,4.57
2022-12-17T01:39:51.206Z,4.55
2022-12-17T01:42:36.135Z,4.55
2022-12-17T01:45:32.262Z,4.54
2022-12-17T01:48:21.404Z,4.46
2022-12-17T01:51:11.700Z,4.41
2022-12-17T01:54:01.621Z,4.39
2022-12-17T01:56:47.370Z,4.42
2022-12-17T01:59:33.440Z,4.42
2022-12-17T02:02:19.020Z,4.42
2022-12-17T02:05:04.244Z,4.46
2022-12-17T02:08:08.414Z,4.47
2022-12-17T02:11:15.799Z,4.49
2022-12-17T02:14:12.189Z,4.46
2022-12-17T02:17:05.548Z,4.43
2022-12-17T02:19:56.765Z,4.42
2022-12-17T02:22:57.131Z,4.41
2022-12-17T02:26:08.191Z,4.42
2022-12-17T02:28:57.933Z,4.45
2022-12-17T02:31:45.047Z,4.48
2022-12-17T02:34:30.458Z,4.50
2022-12-17T02:37:15.852Z,4.53
2022-12-17T02:40:01.520Z,4.56
2022-12-17T02:42:50.139Z,4.58
2022-12-17T02:45:36.534Z,4.57
2022-12-17T02:48:23.085Z,4.57
2022-12-17T02:51:08.447Z,4.58
2022-12-17T02:53:53.774Z,4.60
2022-12-17T02:56:40.645Z,4.60
2022-12-17T02:59:25.724Z,4.58
2022-12-17T03:02:11.878Z,4.55
2022-12-17T03:05:10.504Z,4.53
2022-12-17T03:08:02.797Z,4.51
2022-12-17T03:10:47.753Z,4.54
2022-12-17T03:13:44.089Z,4.54
2022-12-17T03:16:37.098Z,4.56
2022-12-17T03:19:22.735Z,4.57
2022-12-17T03:22:07.515Z,4.56
2022-12-17T03:24:52.624Z,4.56
2022-12-17T03:27:39.445Z,4.54
2022-12-17T03:30:24.834Z,4.53
2022-12-17T03:33:09.921Z,4.51
2022-12-17T03:35:54.943Z,4.53
2022-12-17T03:38:39.820Z,4.55
2022-12-17T03:41:27.002Z,4.55
2022-12-17T03:44:11.999Z,4.56
2022-12-17T03:46:56.920Z,4.54
2022-12-17T03:49:41.663Z,4.49
2022-12-17T03:52:26.580Z,4.43
2022-12-17T03:55:11.297Z,4.40
2022-12-17T03:57:56.321Z,4.39
2022-12-17T04:00:41.567Z,4.39
2022-12-17T04:03:26.276Z,4.35
2022-12-17T04:06:11.368Z,4.35
2022-12-17T04:08:56.248Z,4.33
2022-12-17T04:11:41.220Z,4.36
2022-12-17T04:14:26.307Z,4.36
2022-12-17T04:17:12.671Z,4.32
2022-12-17T04:19:57.561Z,4.31
2022-12-17T04:22:42.470Z,4.30
2022-12-17T04:25:27.370Z,4.34
2022-12-17T04:28:12.334Z,4.38
2022-12-17T04:30:57.347Z,4.43
2022-12-17T04:33:52.973Z,4.49
2022-12-17T04:36:37.892Z,4.53
2022-12-17T04:39:22.878Z,4.54
2022-12-17T04:42:07.997Z,4.54
2022-12-17T04:44:52.691Z,4.57
2022-12-17T04:47:37.747Z,4.57
2022-12-17T04:50:23.443Z,4.56
2022-12-17T04:53:08.358Z,4.55
2022-12-17T04:55:53.125Z,4.54
2022-12-17T04:58:38.220Z,4.52
2022-12-17T05:01:23.471Z,4.47
2022-12-17T05:04:08.576Z,4.45
2022-12-17T05:06:53.656Z,4.40
2022-12-17T05:09:38.484Z,4.38
2022-12-17T05:12:23.784Z,4.38
2022-12-17T05:15:08.608Z,4.35
2022-12-17T05:17:53.375Z,4.34
2022-12-17T05:20:38.151Z,4.36
2022-12-17T05:23:26.888Z,4.39
2022-12-17T05:26:24.307Z,4.41
2022-12-17T05:29:15.451Z,4.40
2022-12-17T05:32:00.780Z,4.35
2022-12-17T05:34:46.006Z,4.30
2022-12-17T05:37:31.094Z,4.26
2022-12-17T05:40:16.233Z,4.21
2022-12-17T05:43:01.095Z,4.17
2022-12-17T05:45:46.027Z,4.14
2022-12-17T05:48:31.075Z,4.10
2022-12-17T05:51:15.948Z,4.08
2022-12-17T05:54:00.875Z,4.07
2022-12-17T05:56:45.736Z,4.04
2022-12-17T05:59:30.648Z,4.01
2022-12-17T06:02:15.747Z,3.95
2022-12-17T06:05:02.524Z,3.81
2022-12-17T06:07:48.167Z,3.71
2022-12-17T06:10:33.039Z,3.64
2022-12-17T06:13:17.976Z,3.58
2022-12-17T06:16:08.019Z,3.59
2022-12-17T06:18:54.159Z,3.62
2022-12-17T06:21:40.301Z,3.65
2022-12-17T06:24:25.412Z,3.66
2022-12-17T06:27:10.988Z,3.64
2022-12-17T06:29:56.417Z,3.62
2022-12-17T06:32:41.619Z,3.61
2022-12-17T06:35:26.911Z,3.62
2022-12-17T06:38:24.490Z,3.63
2022-12-17T06:41:12.462Z,3.62
2022-12-17T06:43:57.507Z,3.61
2022-12-17T06:46:42.439Z,3.61
2022-12-17T06:49:27.560Z,3.63
2022-12-17T06:52:14.739Z,3.63
2022-12-17T06:55:16.471Z,3.59
2022-12-17T06:58:01.796Z,3.55
2022-12-17T07:00:47.089Z,3.51
2022-12-17T07:03:32.349Z,3.50
2022-12-17T07:06:20.478Z,3.53
2022-12-17T07:09:05.688Z,3.55
2022-12-17T07:11:51.032Z,3.55
2022-12-17T07:14:36.183Z,3.55
2022-12-17T07:17:21.371Z,3.55
2022-12-17T07:20:06.477Z,3.52
2022-12-17T07:22:52.752Z,3.49
2022-12-17T07:25:41.616Z,3.47
2022-12-17T07:28:30.680Z,3.48
2022-12-17T07:31:16.045Z,3.49
2022-12-17T07:34:01.200Z,3.48
2022-12-17T07:36:45.931Z,3.48
2022-12-17T07:39:30.874Z,3.50
2022-12-17T07:42:16.026Z,3.53
2022-12-17T07:45:01.124Z,3.54
2022-12-17T07:47:46.049Z,3.54
2022-12-17T07:50:30.877Z,3.54
2022-12-17T07:53:23.826Z,3.54
2022-12-17T07:56:10.297Z,3.55
2022-12-17T07:58:55.454Z,3.58
2022-12-17T08:01:40.812Z,3.56
2022-12-17T08:04:45.694Z,3.56
2022-12-17T08:07:30.719Z,3.61
2022-12-17T08:10:15.685Z,3.64
2022-12-17T08:13:00.516Z,3.65
2022-12-17T08:15:45.695Z,3.65
2022-12-17T08:18:30.759Z,3.66
2022-12-17T08:21:15.907Z,3.67
2022-12-17T08:24:01.006Z,3.69
2022-12-17T08:26:48.197Z,3.71
2022-12-17T08:29:33.971Z,3.73
2022-12-17T08:32:29.803Z,3.70
2022-12-17T08:35:14.744Z,3.71
2022-12-17T08:38:00.054Z,3.74
2022-12-17T08:40:44.921Z,3.75
2022-12-17T08:43:29.975Z,3.77
2022-12-17T08:46:15.135Z,3.79
2022-12-17T08:49:00.412Z,3.80
2022-12-17T08:51:51.262Z,3.81
2022-12-17T08:54:36.040Z,3.81
2022-12-17T08:57:31.456Z,3.83
2022-12-17T09:00:17.464Z,3.85
2022-12-17T09:03:02.647Z,3.90
2022-12-17T09:05:59.459Z,3.88
2022-12-17T09:08:44.354Z,3.88
2022-12-17T09:11:29.453Z,3.88
2022-12-17T09:14:14.372Z,3.90
2022-12-17T09:16:59.536Z,3.90
2022-12-17T09:19:44.729Z,3.89
2022-12-17T09:22:29.592Z,3.89
2022-12-17T09:25:14.804Z,3.87
2022-12-17T09:27:59.563Z,3.83
2022-12-17T09:30:45.025Z,3.81
2022-12-17T09:33:35.432Z,3.82
2022-12-17T09:36:24.937Z,3.85
2022-12-17T09:39:20.706Z,3.89
2022-12-17T09:42:50.494Z,3.91
2022-12-17T09:45:44.058Z,3.95
2022-12-17T09:48:41.630Z,3.93
2022-12-17T09:51:53.236Z,3.91
2022-12-17T09:54:46.811Z,3.91
2022-12-17T09:57:36.881Z,3.90
2022-12-17T10:00:42.398Z,3.92
2022-12-17T10:03:31.692Z,3.94
2022-12-17T10:06:23.046Z,3.97
2022-12-17T10:09:16.811Z,4.00
2022-12-17T10:12:02.520Z,4.03
2022-12-17T10:14:47.818Z,4.07
2022-12-17T10:17:36.287Z,4.11
2022-12-17T10:20:23.047Z,4.15
2022-12-17T10:23:09.082Z,4.15
2022-12-17T10:25:54.567Z,4.17
2022-12-17T10:28:43.486Z,4.18
2022-12-17T10:31:29.990Z,4.17
2022-12-17T10:34:15.774Z,4.17
2022-12-17T10:37:07.234Z,4.17
2022-12-17T10:39:52.657Z,4.18
2022-12-17T10:42:38.590Z,4.16
2022-12-17T10:45:40.347Z,4.14
2022-12-17T10:48:44.700Z,4.18
2022-12-17T10:51:43.258Z,4.20
2022-12-17T10:54:42.610Z,4.24
2022-12-17T10:57:52.000Z,4.26
2022-12-17T11:00:36.855Z,4.31
2022-12-17T11:03:22.852Z,4.32
2022-12-17T11:06:13.134Z,4.38
2022-12-17T11:08:59.755Z,4.38
2022-12-17T11:11:45.127Z,4.34
2022-12-17T11:14:32.453Z,4.26
2022-12-17T11:17:23.238Z,4.20
2022-12-17T11:20:26.451Z,4.14
2022-12-17T11:23:14.989Z,4.12
2022-12-17T11:26:22.997Z,4.12
2022-12-17T11:29:08.484Z,4.14
2022-12-17T11:32:27.892Z,4.11
2022-12-17T11:35:25.956Z,4.10
2022-12-17T11:38:40.445Z,4.10
2022-12-17T11:41:37.053Z,4.13
2022-12-17T11:44:32.390Z,4.18
2022-12-17T11:47:56.117Z,4.15
2022-12-17T11:50:50.711Z,4.12
2022-12-17T11:53:35.528Z,4.09
2022-12-17T11:56:45.436Z,4.04
2022-12-17T11:59:39.765Z,4.05
2022-12-17T12:02:43.651Z,4.00
2022-12-17T12:06:05.601Z,3.96
2022-12-17T12:08:59.613Z,3.94
2022-12-17T12:11:55.444Z,3.89
2022-12-17T12:15:03.715Z,3.85
2022-12-17T12:18:11.291Z,3.87
2022-12-17T12:21:05.753Z,3.80
2022-12-17T12:24:02.610Z,3.75
2022-12-17T12:27:07.047Z,3.70
2022-12-17T12:30:08.319Z,3.67
2022-12-17T12:33:40.068Z,3.58
2022-12-17T12:36:30.130Z,3.56
2022-12-17T12:39:18.845Z,3.54
2022-12-17T12:42:13.779Z,3.55
2022-12-17T12:45:22.736Z,3.58
2022-12-17T12:48:15.459Z,3.53
2022-12-17T12:51:09.084Z,3.46
2022-12-17T12:53:53.886Z,3.39
2022-12-17T12:56:46.075Z,3.35
2022-12-17T12:59:43.208Z,3.34
2022-12-17T13:02:51.646Z,3.31
2022-12-17T13:05:34.460Z,3.31
2022-12-17T13:08:10.048Z,3.31
2022-12-17T13:10:37.063Z,3.31
2022-12-17T13:13:17.344Z,3.31
2022-12-17T13:16:17.202Z,3.31
2022-12-17T13:18:43.741Z,3.37
2022-12-17T13:21:16.286Z,3.41
2022-12-17T13:23:43.909Z,3.44
2022-12-17T13:26:20.268Z,3.44
2022-12-17T13:29:03.288Z,3.43
2022-12-17T13:31:52.012Z,3.40
2022-12-17T13:34:39.801Z,3.35
2022-12-17T13:37:17.970Z,3.32
2022-12-17T13:39:57.717Z,3.31
2022-12-17T13:42:32.368Z,3.31
2022-12-17T13:44:59.465Z,3.33
2022-12-17T13:47:28.216Z,3.39
2022-12-17T13:50:32.823Z,3.46
2022-12-17T13:52:43.660Z,3.49
2022-12-17T13:55:19.493Z,3.53
2022-12-17T13:57:46.693Z,3.54
2022-12-17T14:00:31.149Z,3.54
2022-12-17T14:02:58.077Z,3.59
2022-12-17T14:05:37.364Z,3.57
2022-12-17T14:08:05.403Z,3.60
2022-12-17T14:10:32.744Z,3.63
2022-12-17T14:13:07.175Z,3.62
2022-12-17T14:15:34.619Z,3.59
2022-12-17T14:18:02.311Z,3.58
2022-12-17T14:20:35.311Z,3.54
2022-12-17T14:23:11.003Z,3.57
2022-12-17T14:25:39.934Z,3.55
2022-12-17T14:28:30.031Z,3.55
2022-12-17T14:34:11.840Z,3.56
2022-12-17T14:36:41.769Z,3.55
2022-12-17T14:39:28.960Z,3.48
2022-12-17T14:42:25.914Z,3.44
2022-12-17T14:45:20.465Z,3.39
2022-12-17T14:48:01.272Z,3.35
2022-12-17T14:50:34.496Z,3.37
2022-12-17T14:53:22.734Z,3.38
2022-12-17T14:55:57.278Z,3.37
2022-12-17T14:58:25.689Z,3.35
2022-12-17T15:01:09.145Z,3.32
2022-12-17T15:03:44.150Z,3.25
2022-12-17T15:06:15.276Z,3.19
2022-12-17T15:08:47.282Z,3.16
2022-12-17T15:11:17.104Z,3.12
2022-12-17T15:13:44.195Z,3.07
2022-12-17T15:16:13.567Z,3.04
2022-12-17T15:18:40.409Z,3.02
2022-12-17T15:21:10.000Z,3.04
2022-12-17T15:23:40.961Z,3.04
2022-12-17T15:26:09.699Z,3.00
2022-12-17T15:28:36.734Z,2.98
2022-12-17T15:31:03.790Z,2.93
2022-12-17T15:33:30.715Z,2.87
2022-12-17T15:35:58.307Z,2.83
2022-12-17T15:38:24.868Z,2.78
2022-12-17T15:40:51.366Z,2.74
2022-12-17T15:43:18.103Z,2.71
2022-12-17T15:45:49.640Z,2.72
2022-12-17T15:48:19.363Z,2.73
2022-12-17T15:50:47.114Z,2.73
2022-12-17T15:53:14.385Z,2.69
2022-12-17T15:55:41.324Z,2.68
2022-12-17T15:58:10.550Z,2.64
2022-12-17T16:00:37.794Z,2.58
2022-12-17T16:03:04.432Z,2.50
2022-12-17T16:05:31.042Z,2.44
2022-12-17T16:08:02.015Z,2.40
2022-12-17T16:10:28.700Z,2.37
2022-12-17T16:12:55.152Z,2.35
2022-12-17T16:15:21.681Z,2.34
2022-12-17T16:17:48.183Z,2.34
2022-12-17T16:20:14.674Z,2.35
2022-12-17T16:22:41.591Z,2.33
2022-12-17T16:25:08.661Z,2.27
2022-12-17T16:27:35.294Z,2.23
2022-12-17T16:30:03.260Z,2.20
2022-12-17T16:32:35.959Z,2.18
2022-12-17T16:35:04.717Z,2.18
2022-12-17T16:37:31.386Z,2.18
2022-12-17T16:40:00.206Z,2.17
2022-12-17T16:42:27.330Z,2.15
2022-12-17T16:44:53.857Z,2.14
2022-12-17T16:47:20.432Z,2.12
2022-12-17T16:49:50.173Z,2.08
2022-12-17T16:52:16.702Z,2.04
2022-12-17T16:54:43.227Z,1.99
2022-12-17T16:57:09.727Z,1.95
2022-12-17T16:59:36.260Z,1.93
2022-12-17T17:02:03.055Z,1.92
2022-12-17T17:04:29.832Z,1.91
2022-12-17T17:06:57.556Z,1.89
2022-12-17T17:09:25.658Z,1.83
2022-12-17T17:11:56.868Z,1.82
2022-12-17T17:14:24.046Z,1.84
2022-12-17T17:16:51.079Z,1.83
2022-12-17T17:19:18.533Z,1.80
2022-12-17T17:21:51.706Z,1.79
2022-12-17T17:24:22.085Z,1.80
2022-12-17T17:26:50.549Z,1.76
2022-12-17T17:29:17.263Z,1.67
2022-12-17T17:32:09.133Z,1.61
2022-12-17T17:34:30.220Z,1.56
2022-12-17T17:36:56.678Z,1.51
2022-12-17T17:39:23.259Z,1.45
2022-12-17T17:41:49.879Z,1.43
2022-12-17T17:44:16.509Z,1.44
2022-12-17T17:46:43.347Z,1.45
2022-12-17T17:49:10.531Z,1.46
2022-12-17T17:54:28.113Z,1.35
2022-12-17T17:56:55.415Z,1.30
2022-12-17T17:59:29.202Z,1.30
2022-12-17T18:02:00.212Z,1.27
2022-12-17T18:04:26.972Z,1.30
2022-12-17T18:07:23.806Z,1.33
2022-12-17T18:09:39.970Z,1.31
2022-12-17T18:12:25.602Z,1.30
2022-12-17T18:17:39.255Z,1.34
2022-12-17T18:20:06.394Z,1.37
2022-12-17T18:22:32.954Z,1.36
2022-12-17T18:24:59.515Z,1.32
2022-12-17T18:27:26.005Z,1.31
2022-12-17T18:29:52.596Z,1.29
2022-12-17T18:32:19.248Z,1.30
2022-12-17T18:34:45.841Z,1.27
2022-12-17T18:37:12.365Z,1.30
2022-12-17T18:39:38.923Z,1.31
2022-12-17T18:42:24.252Z,1.33
2022-12-17T18:44:50.745Z,1.36
2022-12-17T18:47:18.710Z,1.39
2022-12-17T18:49:45.389Z,1.41
2022-12-17T18:52:16.468Z,1.39
2022-12-17T18:54:43.827Z,1.37
2022-12-17T18:57:10.830Z,1.38
2022-12-17T18:59:37.479Z,1.37
2022-12-17T19:02:04.550Z,1.34
2022-12-17T19:04:32.963Z,1.30
2022-12-17T19:06:59.798Z,1.23
2022-12-17T19:09:29.127Z,1.16
2022-12-17T19:11:56.940Z,1.10
2022-12-17T19:14:25.093Z,1.08
2022-12-17T19:16:54.338Z,1.06
2022-12-17T19:19:21.842Z,1.03
2022-12-17T19:21:48.831Z,1.02
2022-12-17T19:24:18.256Z,1.00
2022-12-17T19:26:45.917Z,1.00
2022-12-17T19:29:14.407Z,1.01
2022-12-17T19:31:41.282Z,1.05
2022-12-17T19:34:11.172Z,1.08
2022-12-17T19:36:39.369Z,1.11
2022-12-17T19:39:08.949Z,1.12
2022-12-17T19:41:35.576Z,1.13
2022-12-17T19:44:05.104Z,1.12
2022-12-17T19:46:33.177Z,1.11
2022-12-17T19:49:00.007Z,1.10
2022-12-17T19:51:29.421Z,1.08
2022-12-17T19:53:56.348Z,1.09
2022-12-17T19:56:30.501Z,1.12
2022-12-17T19:59:02.169Z,1.14
2022-12-17T20:01:33.981Z,1.15
2022-12-17T20:04:01.066Z,1.16
2022-12-17T20:06:32.051Z,1.21
2022-12-17T20:08:59.784Z,1.24
2022-12-17T20:11:32.903Z,1.26
2022-12-17T20:14:08.540Z,1.26
2022-12-17T20:16:41.528Z,1.27
2022-12-17T20:19:11.672Z,1.28
2022-12-17T20:21:38.698Z,1.30
2022-12-17T20:24:05.805Z,1.31
2022-12-17T20:26:33.177Z,1.31
2022-12-17T20:29:00.137Z,1.28
2022-12-17T20:31:28.051Z,1.26
2022-12-17T20:33:54.907Z,1.21
2022-12-17T20:36:22.559Z,1.18
2022-12-17T20:38:49.678Z,1.16
2022-12-17T20:41:24.560Z,1.14
2022-12-17T20:43:51.744Z,1.16
2022-12-17T20:46:19.707Z,1.22
2022-12-17T20:48:46.765Z,1.26
2022-12-17T20:51:16.903Z,1.24
2022-12-17T20:53:44.952Z,1.22
2022-12-17T20:56:14.921Z,1.22
2022-12-17T20:58:42.636Z,1.24
2022-12-17T21:01:19.029Z,1.26
2022-12-17T21:03:47.216Z,1.26
2022-12-17T21:06:16.628Z,1.28
2022-12-17T21:08:49.280Z,1.31
2022-12-17T21:11:24.778Z,1.30
2022-12-17T21:13:51.826Z,1.29
2022-12-17T21:16:21.428Z,1.26
2022-12-17T21:18:48.346Z,1.24
2022-12-17T21:21:20.747Z,1.24
2022-12-17T21:23:48.559Z,1.26
2022-12-17T21:26:18.477Z,1.29
2022-12-17T21:28:47.127Z,1.30
2022-12-17T21:31:22.503Z,1.31
2022-12-17T21:33:50.724Z,1.36
2022-12-17T21:36:19.988Z,1.36
2022-12-17T21:38:47.337Z,1.35
2022-12-17T21:41:16.879Z,1.35
2022-12-17T21:43:43.861Z,1.34
2022-12-17T21:46:11.704Z,1.37
2022-12-17T21:48:42.096Z,1.37
2022-12-17T21:51:11.889Z,1.31
2022-12-17T21:53:42.647Z,1.24
2022-12-17T21:56:12.735Z,1.19
2022-12-17T21:58:40.826Z,1.12
2022-12-17T22:01:22.142Z,1.05
2022-12-17T22:03:54.013Z,0.98
2022-12-17T22:06:25.089Z,0.93
2022-12-17T22:09:01.703Z,0.98
2022-12-17T22:11:40.740Z,1.03
2022-12-17T22:14:16.994Z,1.08
2022-12-17T22:16:49.458Z,1.13
2022-12-17T22:19:23.137Z,1.19
2022-12-17T22:21:51.466Z,1.22
2022-12-17T22:24:25.363Z,1.23
2022-12-17T22:26:59.491Z,1.21
2022-12-17T22:29:48.287Z,1.18
2022-12-17T22:32:33.024Z,1.17
2022-12-17T22:35:45.759Z,1.17
2022-12-17T22:42:47.840Z,1.17
2022-12-17T22:44:30.853Z,1.19
2022-12-17T22:44:45.731Z,1.20
2022-12-17T22:46:16.835Z,1.20
2022-12-17T22:48:43.493Z,1.18
2022-12-17T22:51:13.544Z,1.17
2022-12-17T22:53:45.149Z,1.19
2022-12-17T22:56:27.768Z,1.16
2022-12-17T22:58:59.397Z,1.11
2022-12-17T23:01:26.656Z,1.06
2022-12-17T23:03:57.863Z,1.01
2022-12-17T23:06:24.691Z,1.00
2022-12-17T23:08:51.519Z,1.00
2022-12-17T23:11:26.848Z,1.00
2022-12-17T23:13:54.451Z,0.97
2022-12-17T23:16:21.480Z,0.99
2022-12-17T23:18:49.583Z,0.98
2022-12-17T23:21:19.236Z,0.95
2022-12-17T23:23:46.132Z,0.93
2022-12-17T23:26:18.688Z,0.91
2022-12-17T23:28:46.277Z,0.86
2022-12-17T23:31:17.640Z,0.82
2022-12-17T23:33:44.861Z,0.79
2022-12-17T23:36:14.628Z,0.76
2022-12-17T23:38:41.238Z,0.73
2022-12-17T23:41:10.913Z,0.69
2022-12-17T23:43:38.570Z,0.65
2022-12-17T23:46:07.064Z,0.62
2022-12-17T23:48:40.763Z,0.60
2022-12-17T23:51:14.122Z,0.61
2022-12-17T23:53:42.004Z,0.57
2022-12-17T23:56:19.665Z,0.52
2022-12-17T23:58:47.784Z,0.47
